Time;durP1;ratioP1;P1;durP2;ratioP2;P2;SDS_P1;SDS_P2;PMS_P1;PMS_P2;Temp;Humidity;BMP_temperature;BMP_pressure;BME280_temperature;BME280_humidity;BME280_pressure;Samples;Min_cycle;Max_cycle;Signal;HPM_P1;HPM_P2
2021/12/17 00:00:35;;;;;;;36.72;23.17;;;179.90;2124.80;;;;;;4992725;28;20064;-57
2021/12/17 00:05:45;;;;;;;32.83;22.10;;;180.00;2099.20;;;;;;4993164;28;20023;-57
2021/12/17 00:08:11;;;;;;;34.08;22.98;;;180.00;2124.80;;;;;;4992410;28;20043;-57
2021/12/17 00:10:37;;;;;;;32.00;21.90;;;180.00;2073.60;;;;;;4992913;28;20031;-57
2021/12/17 00:13:03;;;;;;;33.55;23.65;;;179.90;2099.20;;;;;;4992369;28;20052;-58
2021/12/17 00:15:29;;;;;;;37.88;24.95;;;179.90;2099.20;;;;;;4991991;28;20042;-57
2021/12/17 00:18:01;;;;;;;39.60;25.58;;;179.90;2073.60;;;;;;4983763;28;20031;-57
2021/12/17 00:53:08;;;;;;;33.13;20.95;;;179.80;2099.20;;;;;;5011763;28;20468;-58
2021/12/17 00:55:34;;;;;;;37.03;23.67;;;179.80;2073.60;;;;;;5011882;28;20030;-58
2021/12/17 00:58:00;;;;;;;32.60;22.30;;;179.80;2099.20;;;;;;5012015;28;20407;-58
2021/12/17 01:00:26;;;;;;;32.80;21.85;;;179.90;2073.60;;;;;;5011707;28;20022;-58
2021/12/17 01:02:52;;;;;;;31.52;22.58;;;179.90;2073.60;;;;;;5011871;28;20049;-59
2021/12/17 01:05:23;;;;;;;32.00;21.60;;;179.80;2073.60;;;;;;5086856;28;20024;-58
2021/12/17 01:07:52;;;;;;;31.55;20.70;;;179.90;2073.60;;;;;;5093768;28;20057;-58
2021/12/17 01:10:21;;;;;;;28.15;20.77;;;179.90;2073.60;;;;;;5093621;28;20413;-57
2021/12/17 01:12:47;;;;;;;33.15;21.80;;;179.90;2099.20;;;;;;5093788;28;20035;-57
2021/12/17 01:15:17;;;;;;;33.80;21.35;;;179.90;2073.60;;;;;;5093203;28;20020;-58
2021/12/17 01:17:45;;;;;;;36.58;21.15;;;179.90;2073.60;;;;;;5093626;28;20453;-58
2021/12/17 01:25:33;;;;;;;35.10;21.30;;;180.00;2048.00;;;;;;5093691;28;20081;-58
2021/12/17 01:36:11;;;;;;;34.70;20.27;;;180.10;2099.20;;;;;;5093464;28;20047;-57
2021/12/17 01:43:52;;;;;;;58.42;31.25;;;180.10;2099.20;;;;;;5093175;28;20127;-57
2021/12/17 01:46:24;;;;;;;48.30;28.92;;;180.10;2073.60;;;;;;5093439;28;20044;-57
2021/12/17 01:59:49;;;;;;;59.30;33.35;;;180.00;2073.60;;;;;;5097520;28;20476;-57
2021/12/17 02:02:15;;;;;;;60.20;34.97;;;180.10;2073.60;;;;;;5097071;28;20048;-58
2021/12/17 02:04:43;;;;;;;66.55;35.03;;;180.00;2099.20;;;;;;5097030;28;20028;-58
2021/12/17 02:07:08;;;;;;;75.53;38.85;;;180.10;2073.60;;;;;;5096499;28;20032;-59
2021/12/17 02:31:43;;;;;;;81.95;41.55;;;204.80;2099.20;;;;;;4918002;29;20140;-58
2021/12/17 02:37:05;;;;;;;69.25;36.25;;;204.90;2073.60;;;;;;4898908;29;20048;-60
2021/12/17 02:47:44;;;;;;;44.47;24.60;;;204.90;2124.80;;;;;;4898676;29;20097;-58
2021/12/17 02:50:11;;;;;;;35.13;21.10;;;204.90;2073.60;;;;;;4898647;29;20283;-58
2021/12/17 02:52:39;;;;;;;38.78;21.83;;;205.00;2099.20;;;;;;4899133;29;20043;-58
2021/12/17 02:55:07;;;;;;;32.60;19.90;;;205.00;2099.20;;;;;;4898657;29;20127;-58
2021/12/17 02:57:35;;;;;;;32.03;19.90;;;205.00;2073.60;;;;;;4898739;29;20087;-57
2021/12/17 03:00:04;;;;;;;31.25;19.05;;;205.00;2073.60;;;;;;4898428;29;20040;-58
2021/12/17 03:02:31;;;;;;;28.52;18.60;;;205.00;2073.60;;;;;;4918030;28;20552;-58
2021/12/17 03:04:58;;;;;;;31.33;20.08;;;205.00;2073.60;;;;;;4974797;28;20145;-57
2021/12/17 03:07:23;;;;;;;29.13;18.63;;;205.00;2099.20;;;;;;5006373;28;20157;-58
2021/12/17 03:10:07;;;;;;;27.35;18.10;;;205.00;2099.20;;;;;;5033514;28;20435;-58
2021/12/17 03:15:14;;;;;;;29.85;18.27;;;205.00;2099.20;;;;;;5090979;28;20153;-57
2021/12/17 03:25:37;;;;;;;29.20;16.97;;;205.10;2073.60;;;;;;5095352;28;20469;-57
2021/12/17 03:28:03;;;;;;;23.60;16.25;;;205.00;2124.80;;;;;;5095925;28;20056;-57
2021/12/17 03:30:29;;;;;;;21.27;14.95;;;205.10;2099.20;;;;;;5095148;28;20134;-57
2021/12/17 03:32:55;;;;;;;21.52;15.48;;;205.10;2099.20;;;;;;5094937;28;20109;-58
2021/12/17 03:35:21;;;;;;;21.00;15.07;;;205.10;2099.20;;;;;;5095260;28;20428;-59
2021/12/17 03:37:46;;;;;;;20.60;15.18;;;205.10;2099.20;;;;;;5095190;28;20043;-59
2021/12/17 03:40:15;;;;;;;23.15;15.55;;;205.10;2073.60;;;;;;5095339;28;20454;-59
2021/12/17 03:42:46;;;;;;;22.98;14.50;;;205.10;2099.20;;;;;;5094763;28;20048;-58
2021/12/17 03:45:13;;;;;;;22.90;15.32;;;205.10;2073.60;;;;;;5095319;28;20024;-57
2021/12/17 03:47:39;;;;;;;20.15;13.93;;;205.10;2099.20;;;;;;5095174;28;20354;-58
2021/12/17 03:50:05;;;;;;;22.35;15.45;;;205.10;2099.20;;;;;;5095041;28;20066;-58
2021/12/17 03:52:31;;;;;;;19.75;13.82;;;205.10;2073.60;;;;;;5094670;28;20024;-58
2021/12/17 03:54:57;;;;;;;18.55;13.70;;;205.10;2099.20;;;;;;5095098;28;20036;-58
2021/12/17 03:57:23;;;;;;;22.77;14.82;;;205.20;2099.20;;;;;;5094872;28;20465;-57
2021/12/17 03:59:49;;;;;;;21.15;14.07;;;205.20;2073.60;;;;;;5094573;28;20078;-57
2021/12/17 04:02:16;;;;;;;21.42;14.05;;;205.20;2099.20;;;;;;5094692;28;20074;-57
2021/12/17 04:04:42;;;;;;;19.85;14.15;;;205.20;2099.20;;;;;;5094672;28;20036;-57
2021/12/17 04:07:08;;;;;;;22.77;14.57;;;205.20;2073.60;;;;;;5094938;28;20050;-57
2021/12/17 04:09:34;;;;;;;24.23;14.52;;;205.20;2099.20;;;;;;5094163;28;20038;-57
2021/12/17 04:12:06;;;;;;;23.90;14.80;;;205.20;2073.60;;;;;;5094548;28;20377;-57
2021/12/17 04:14:35;;;;;;;21.27;14.43;;;205.20;2099.20;;;;;;5094658;28;20040;-58
2021/12/17 04:17:05;;;;;;;20.83;14.35;;;205.30;2099.20;;;;;;5093966;28;20032;-58
2021/12/17 04:19:31;;;;;;;20.15;14.00;;;205.30;2073.60;;;;;;5094354;28;20409;-57
2021/12/17 04:21:57;;;;;;;22.05;14.88;;;205.20;2099.20;;;;;;5094561;28;20024;-57
2021/12/17 04:24:22;;;;;;;21.30;15.25;;;205.20;2099.20;;;;;;5094269;28;20393;-58
2021/12/17 04:26:48;;;;;;;21.92;14.52;;;205.30;2099.20;;;;;;5093937;28;20496;-58
2021/12/17 04:29:15;;;;;;;24.00;14.40;;;205.30;2099.20;;;;;;5095050;28;20036;-57
2021/12/17 04:31:41;;;;;;;25.45;15.52;;;205.30;2099.20;;;;;;5094278;28;20027;-57
2021/12/17 04:34:08;;;;;;;28.30;14.68;;;205.30;2124.80;;;;;;5094486;28;20457;-57
2021/12/17 04:36:36;;;;;;;27.98;15.25;;;205.40;2124.80;;;;;;5094304;28;20431;-57
2021/12/17 04:39:03;;;;;;;22.15;14.07;;;205.40;2099.20;;;;;;5094209;28;20060;-56
2021/12/17 04:44:08;;;;;;;21.63;13.98;;;205.40;2073.60;;;;;;5093919;28;20486;-59
2021/12/17 04:59:47;;;;;;;21.05;15.85;;;205.40;2073.60;;;;;;5093731;28;20024;-58
2021/12/17 05:02:15;;;;;;;22.80;17.98;;;205.40;2048.00;;;;;;5093636;28;20033;-59
2021/12/17 05:04:42;;;;;;;22.30;16.88;;;205.40;2048.00;;;;;;5093924;28;20035;-58
2021/12/17 05:07:11;;;;;;;17.35;13.75;;;205.40;2048.00;;;;;;5093477;28;20028;-58
2021/12/17 05:23:01;;;;;;;17.75;13.63;;;205.10;2022.40;;;;;;4991980;28;20058;-61
2021/12/17 05:25:29;;;;;;;18.10;13.82;;;205.10;2022.40;;;;;;4992164;28;20034;-58
2021/12/17 05:28:00;;;;;;;17.73;12.98;;;205.10;2022.40;;;;;;4992056;28;20112;-58
2021/12/17 05:30:27;;;;;;;16.25;11.82;;;205.00;2022.40;;;;;;4994014;28;20081;-57
2021/12/17 05:32:53;;;;;;;17.83;12.35;;;205.00;2022.40;;;;;;4995968;28;20018;-58
2021/12/17 05:35:19;;;;;;;17.73;12.45;;;204.90;2022.40;;;;;;4996112;28;20029;-58
2021/12/17 05:37:45;;;;;;;16.63;11.25;;;204.90;2022.40;;;;;;4995750;28;20101;-57
2021/12/17 05:40:11;;;;;;;16.17;12.00;;;204.90;2022.40;;;;;;4995834;28;20463;-57
2021/12/17 05:42:39;;;;;;;17.50;12.10;;;204.90;2022.40;;;;;;4995533;28;20121;-57
2021/12/17 05:45:21;;;;;;;15.98;11.52;;;204.90;2022.40;;;;;;4995627;28;20037;-57
2021/12/17 05:47:47;;;;;;;16.40;11.27;;;204.90;2022.40;;;;;;4995777;28;20069;-57
2021/12/17 05:50:13;;;;;;;15.68;11.50;;;204.90;2022.40;;;;;;4995673;28;20129;-57
2021/12/17 05:52:39;;;;;;;16.42;12.00;;;204.90;2022.40;;;;;;4995565;28;20038;-61
2021/12/17 05:55:05;;;;;;;17.83;12.27;;;204.90;2022.40;;;;;;4995971;28;20041;-58
2021/12/17 05:57:31;;;;;;;18.15;12.77;;;204.90;2022.40;;;;;;4995922;28;20052;-58
2021/12/17 05:59:56;;;;;;;19.67;13.05;;;204.90;2022.40;;;;;;5041566;28;20481;-58
2021/12/17 06:02:22;;;;;;;19.13;13.05;;;204.90;2022.40;;;;;;5076603;28;20020;-58
2021/12/17 06:04:48;;;;;;;22.60;13.85;;;204.80;2022.40;;;;;;5076916;28;20504;-58
2021/12/17 06:07:23;;;;;;;24.02;14.45;;;204.80;2022.40;;;;;;5076576;28;20423;-58
2021/12/17 06:09:49;;;;;;;23.98;14.27;;;204.80;2022.40;;;;;;5076359;28;20029;-57
2021/12/17 06:12:14;;;;;;;23.13;14.60;;;204.80;2022.40;;;;;;5076882;28;20066;-57
2021/12/17 06:14:40;;;;;;;20.88;14.18;;;204.80;2022.40;;;;;;5076643;28;20047;-58
2021/12/17 06:17:06;;;;;;;20.10;14.45;;;204.80;1996.80;;;;;;5076584;28;20056;-58
2021/12/17 06:19:31;;;;;;;22.35;14.95;;;204.80;1996.80;;;;;;5076346;28;20492;-57
2021/12/17 06:21:58;;;;;;;19.20;13.10;;;180.10;2022.40;;;;;;5076356;28;20035;-57
2021/12/17 06:24:24;;;;;;;23.38;14.63;;;180.10;1996.80;;;;;;5076360;28;20394;-57
2021/12/17 06:26:50;;;;;;;28.23;15.52;;;180.10;1996.80;;;;;;5076242;28;20016;-57
2021/12/17 06:29:16;;;;;;;23.83;15.10;;;180.10;1996.80;;;;;;5076606;28;20021;-58
2021/12/17 06:31:42;;;;;;;23.60;16.02;;;180.00;1996.80;;;;;;5076396;28;20450;-57
2021/12/17 06:34:08;;;;;;;27.70;18.08;;;180.00;1996.80;;;;;;5076469;28;20024;-57
2021/12/17 06:36:33;;;;;;;25.65;17.63;;;180.00;1996.80;;;;;;5076211;28;20035;-57
2021/12/17 06:38:59;;;;;;;28.20;20.25;;;179.90;1996.80;;;;;;5076021;28;20491;-58
2021/12/17 06:41:25;;;;;;;22.00;17.15;;;179.90;1996.80;;;;;;5075687;28;20028;-57
2021/12/17 06:43:50;;;;;;;25.33;16.45;;;179.80;1996.80;;;;;;5089247;28;20059;-57
2021/12/17 06:48:55;;;;;;;26.95;16.40;;;179.80;1996.80;;;;;;5096377;28;20111;-59
2021/12/17 07:10:27;;;;;;;21.02;14.77;;;179.70;1996.80;;;;;;4974784;28;20034;-58
2021/12/17 07:34:04;;;;;;;31.20;19.65;;;179.70;1996.80;;;;;;4974371;28;20046;-58
2021/12/17 07:36:55;;;;;;;45.28;25.98;;;179.70;1996.80;;;;;;4974132;28;20490;-58
2021/12/17 07:39:21;;;;;;;39.80;25.10;;;179.70;1996.80;;;;;;5046679;28;20036;-58
2021/12/17 07:41:46;;;;;;;34.22;22.35;;;179.70;1996.80;;;;;;5095081;28;20054;-58
2021/12/17 07:44:13;;;;;;;30.45;19.48;;;179.80;2022.40;;;;;;5073025;28;20113;-59
2021/12/17 07:46:38;;;;;;;28.27;17.65;;;179.70;2022.40;;;;;;5074919;28;20027;-57
2021/12/17 07:49:04;;;;;;;24.48;16.75;;;179.80;2022.40;;;;;;5074737;28;20037;-58
2021/12/17 07:51:30;;;;;;;24.15;16.52;;;179.80;2022.40;;;;;;5074586;28;20033;-58
2021/12/17 07:53:56;;;;;;;23.27;15.90;;;179.80;2022.40;;;;;;5074208;28;20032;-58
2021/12/17 07:56:30;;;;;;;24.38;16.20;;;179.90;2022.40;;;;;;5074744;28;20103;-60
2021/12/17 07:58:56;;;;;;;22.80;15.57;;;179.90;2022.40;;;;;;5074395;28;20024;-62
2021/12/17 08:01:22;;;;;;;22.50;15.35;;;179.90;2022.40;;;;;;5074587;28;20017;-58
2021/12/17 08:03:47;;;;;;;22.67;15.93;;;179.90;2022.40;;;;;;5074385;28;20432;-58
2021/12/17 08:06:13;;;;;;;26.52;15.98;;;179.90;2022.40;;;;;;5074751;28;20020;-58
2021/12/17 08:08:39;;;;;;;29.75;17.17;;;180.00;2022.40;;;;;;5074388;28;20601;-59
2021/12/17 08:11:06;;;;;;;24.33;16.90;;;180.00;2022.40;;;;;;5074181;28;20370;-58
2021/12/17 08:13:34;;;;;;;24.58;16.20;;;180.00;2022.40;;;;;;5074190;28;20029;-58
2021/12/17 08:31:34;;;;;;;21.45;13.95;;;180.10;2022.40;;;;;;5073930;28;20021;-58
2021/12/17 08:34:02;;;;;;;24.10;15.00;;;204.80;2022.40;;;;;;5073869;28;20029;-58
2021/12/17 08:36:28;;;;;;;23.33;15.27;;;204.80;2022.40;;;;;;5074059;28;20024;-57
2021/12/17 08:38:54;;;;;;;21.77;15.07;;;204.80;2022.40;;;;;;5073876;28;20423;-58
2021/12/17 08:41:21;;;;;;;27.63;17.15;;;204.80;2022.40;;;;;;5073421;28;20035;-59
2021/12/17 08:43:48;;;;;;;26.55;17.30;;;204.90;2022.40;;;;;;5086248;28;20405;-59
2021/12/17 08:46:14;;;;;;;24.13;16.55;;;204.90;2022.40;;;;;;5093575;28;20031;-58
2021/12/17 08:48:40;;;;;;;27.35;16.80;;;204.90;2048.00;;;;;;5093845;28;20066;-59
2021/12/17 08:51:07;;;;;;;27.83;17.08;;;204.90;2022.40;;;;;;5093824;28;20020;-59
2021/12/17 08:53:34;;;;;;;35.05;20.17;;;205.00;2022.40;;;;;;5093816;28;20027;-58
2021/12/17 08:56:01;;;;;;;29.33;18.38;;;205.00;2022.40;;;;;;5094020;28;20024;-57
2021/12/17 08:58:26;;;;;;;30.38;16.95;;;205.00;2022.40;;;;;;5093917;28;20024;-58
2021/12/17 09:00:52;;;;;;;32.97;20.08;;;205.10;1996.80;;;;;;5093450;28;20016;-58
2021/12/17 09:03:18;;;;;;;32.15;20.23;;;205.10;1996.80;;;;;;5085009;28;21218;-58
2021/12/17 09:05:46;;;;;;;32.83;18.83;;;205.10;1996.80;;;;;;5093210;28;20465;-57
2021/12/17 09:08:13;;;;;;;39.40;19.60;;;205.10;1996.80;;;;;;5081083;28;20033;-57
2021/12/17 09:10:43;;;;;;;42.70;21.90;;;205.10;1996.80;;;;;;5082427;28;20025;-58
2021/12/17 09:13:09;;;;;;;40.70;21.70;;;205.10;1996.80;;;;;;5071670;28;20118;-58
2021/12/17 09:15:35;;;;;;;43.35;21.77;;;205.20;1996.80;;;;;;5083013;28;20043;-58
2021/12/17 09:18:01;;;;;;;35.08;19.98;;;205.20;1996.80;;;;;;5082001;28;20130;-64
2021/12/17 09:20:27;;;;;;;38.38;21.88;;;205.20;1996.80;;;;;;5081617;28;20020;-61
2021/12/17 09:22:53;;;;;;;42.30;22.05;;;205.20;1996.80;;;;;;5080437;28;20520;-64
2021/12/17 09:25:19;;;;;;;44.08;23.90;;;205.20;1996.80;;;;;;5073511;28;20025;-60
2021/12/17 09:27:45;;;;;;;37.22;20.58;;;205.20;2022.40;;;;;;5073530;28;20461;-60
2021/12/17 09:30:14;;;;;;;42.72;25.08;;;205.20;1996.80;;;;;;5073376;28;20035;-62
2021/12/17 09:32:40;;;;;;;173.38;100.95;;;205.20;1996.80;;;;;;5072857;28;20028;-64
2021/12/17 09:35:11;;;;;;;250.07;151.00;;;205.20;1996.80;;;;;;5073836;28;20146;-62
2021/12/17 09:37:38;;;;;;;290.13;203.82;;;205.20;1996.80;;;;;;5073244;28;20110;-61
2021/12/17 09:40:07;;;;;;;152.75;108.22;;;205.20;1996.80;;;;;;5076172;28;20040;-61
2021/12/17 09:42:34;;;;;;;125.30;90.97;;;230.50;2099.20;;;;;;5072646;28;20039;-62
2021/12/17 09:45:00;;;;;;;142.98;102.82;;;231.10;1971.20;;;;;;5073344;28;20032;-63
2021/12/17 09:47:26;;;;;;;104.20;78.60;;;256.00;1920.00;;;;;;5072546;28;20374;-61
2021/12/17 09:49:54;;;;;;;42.65;30.10;;;256.00;1843.20;;;;;;5086879;28;20099;-64
2021/12/17 09:52:20;;;;;;;32.22;21.52;;;231.20;1843.20;;;;;;5091982;28;20043;-64
2021/12/17 09:54:45;;;;;;;36.80;22.98;;;231.10;1843.20;;;;;;5091954;28;20024;-64
2021/12/17 09:57:11;;;;;;;32.08;22.95;;;231.00;1868.80;;;;;;5091736;28;20103;-64
2021/12/17 09:59:37;;;;;;;34.97;23.13;;;230.90;1868.80;;;;;;5091624;28;20038;-61
2021/12/17 10:02:03;;;;;;;31.88;18.80;;;230.80;1868.80;;;;;;5091631;28;20031;-62
2021/12/17 10:04:33;;;;;;;30.77;18.73;;;230.80;1868.80;;;;;;5091443;28;20056;-65
2021/12/17 10:07:21;;;;;;;32.92;19.85;;;230.80;1894.40;;;;;;5083915;28;20073;-65
2021/12/17 10:09:53;;;;;;;42.42;19.48;;;230.70;1894.40;;;;;;5080006;28;20030;-65
2021/12/17 10:12:27;;;;;;;40.35;21.58;;;230.70;1894.40;;;;;;5089179;28;20481;-64
2021/12/17 10:15:08;;;;;;;31.83;19.05;;;230.60;1894.40;;;;;;5091863;28;20038;-62
2021/12/17 10:17:36;;;;;;;35.50;19.55;;;230.60;1920.00;;;;;;5084790;28;20105;-61
2021/12/17 10:20:05;;;;;;;34.33;19.23;;;230.60;1920.00;;;;;;5086384;28;20039;-61
2021/12/17 10:22:31;;;;;;;32.78;19.55;;;230.60;1920.00;;;;;;5084357;28;20438;-61
2021/12/17 10:25:09;;;;;;;34.50;18.73;;;230.50;1920.00;;;;;;5086545;28;20029;-63
2021/12/17 10:27:42;;;;;;;29.50;17.73;;;230.50;1920.00;;;;;;5083807;28;20040;-64
2021/12/17 10:30:18;;;;;;;23.30;15.38;;;230.50;1920.00;;;;;;5085155;28;20031;-64
2021/12/17 10:32:48;;;;;;;24.05;14.25;;;230.50;1920.00;;;;;;5086000;28;20039;-61
2021/12/17 10:35:20;;;;;;;25.77;14.77;;;230.50;1920.00;;;;;;5085762;28;20024;-65
2021/12/17 10:37:57;;;;;;;31.65;17.80;;;230.50;1920.00;;;;;;5085561;28;20031;-62
2021/12/17 10:40:46;;;;;;;37.45;21.60;;;230.50;1945.60;;;;;;5086154;28;20027;-64
2021/12/17 10:43:25;;;;;;;40.65;21.73;;;230.60;1945.60;;;;;;5077578;28;20516;-61
2021/12/17 10:46:03;;;;;;;48.30;29.25;;;230.60;1945.60;;;;;;5085959;28;20059;-64
2021/12/17 10:48:36;;;;;;;37.88;22.73;;;230.60;1945.60;;;;;;5085687;28;20093;-63
2021/12/17 10:51:08;;;;;;;56.83;35.30;;;230.60;1945.60;;;;;;5085145;28;20012;-64
2021/12/17 10:53:33;;;;;;;43.00;23.35;;;230.60;1945.60;;;;;;5085684;28;20107;-64
2021/12/17 10:55:59;;;;;;;37.22;23.98;;;230.60;1945.60;;;;;;5084800;28;20139;-62
2021/12/17 10:58:26;;;;;;;35.50;22.80;;;230.60;1920.00;;;;;;5083135;28;20021;-63
2021/12/17 11:01:02;;;;;;;40.38;24.27;;;230.60;1920.00;;;;;;5072536;28;20024;-65
2021/12/17 11:03:28;;;;;;;43.00;21.88;;;230.60;1920.00;;;;;;5085305;28;20113;-64
2021/12/17 11:05:54;;;;;;;34.30;18.88;;;230.60;1945.60;;;;;;5083577;28;20027;-64
2021/12/17 11:08:30;;;;;;;29.73;17.80;;;230.60;1945.60;;;;;;5083700;28;20028;-64
2021/12/17 11:11:10;;;;;;;27.10;16.65;;;230.60;1945.60;;;;;;5085267;28;20027;-64
2021/12/17 11:13:51;;;;;;;29.90;16.40;;;230.60;1945.60;;;;;;5085469;28;20028;-62
2021/12/17 11:16:18;;;;;;;23.17;14.50;;;230.70;1945.60;;;;;;5085471;28;20024;-61
2021/12/17 11:18:44;;;;;;;23.48;14.52;;;230.70;1920.00;;;;;;5084906;28;20482;-64
2021/12/17 11:21:12;;;;;;;29.10;17.00;;;230.70;1945.60;;;;;;5083015;28;20020;-63
2021/12/17 11:23:37;;;;;;;31.63;18.52;;;230.70;1945.60;;;;;;5083901;28;20038;-64
2021/12/17 11:26:03;;;;;;;32.30;19.08;;;230.70;1920.00;;;;;;5084755;28;20091;-63
2021/12/17 11:28:29;;;;;;;38.50;21.23;;;230.70;1945.60;;;;;;5082711;28;20024;-64
2021/12/17 11:30:56;;;;;;;41.72;21.65;;;230.70;1945.60;;;;;;5084453;28;20051;-61
2021/12/17 11:33:28;;;;;;;32.45;16.50;;;230.80;1971.20;;;;;;5087580;28;20031;-63
2021/12/17 11:35:54;;;;;;;31.92;17.67;;;230.80;1945.60;;;;;;5082888;28;20103;-61
2021/12/17 11:38:46;;;;;;;39.03;18.90;;;230.90;1920.00;;;;;;5084680;28;20594;-62
2021/12/17 11:41:24;;;;;;;80.00;42.70;;;230.80;1920.00;;;;;;5086603;28;20020;-66
2021/12/17 11:44:00;;;;;;;117.03;61.15;;;230.90;1920.00;;;;;;5089026;28;20102;-61
2021/12/17 11:46:32;;;;;;;86.65;52.50;;;230.80;1945.60;;;;;;5082284;28;20020;-62
2021/12/17 11:49:05;;;;;;;55.97;32.47;;;230.80;1945.60;;;;;;5083536;28;20020;-63
2021/12/17 11:51:33;;;;;;;44.80;27.30;;;230.80;1920.00;;;;;;5085193;28;20512;-63
2021/12/17 11:54:18;;;;;;;52.72;33.47;;;230.80;1945.60;;;;;;5083291;28;20024;-63
2021/12/17 11:56:48;;;;;;;46.55;26.95;;;230.80;1920.00;;;;;;5084216;28;20547;-61
2021/12/17 11:59:27;;;;;;;35.70;20.77;;;230.80;1945.60;;;;;;5083785;28;20048;-64
2021/12/17 12:02:16;;;;;;;40.08;21.40;;;230.80;1920.00;;;;;;5084393;28;20095;-62
2021/12/17 12:04:51;;;;;;;33.05;18.75;;;230.80;1945.60;;;;;;5086907;28;20037;-62
2021/12/17 12:07:33;;;;;;;29.70;17.50;;;230.80;1945.60;;;;;;5084435;28;20016;-63
2021/12/17 12:09:59;;;;;;;29.25;17.25;;;230.80;1945.60;;;;;;5084314;28;20381;-64
2021/12/17 12:12:27;;;;;;;30.77;17.60;;;230.80;1945.60;;;;;;5083821;28;20024;-61
2021/12/17 12:14:54;;;;;;;33.50;17.13;;;230.80;1945.60;;;;;;5084386;28;20024;-63
2021/12/17 12:17:57;;;;;;;33.05;17.58;;;230.80;1945.60;;;;;;5082238;28;20031;-62
2021/12/17 12:20:41;;;;;;;32.40;18.05;;;230.80;1945.60;;;;;;5000453;28;20144;-63
2021/12/17 12:23:33;;;;;;;33.78;19.08;;;230.80;1945.60;;;;;;5001923;28;20134;-64
2021/12/17 12:26:01;;;;;;;32.97;19.40;;;230.80;1945.60;;;;;;4999578;28;20030;-65
2021/12/17 12:28:45;;;;;;;37.75;21.02;;;230.80;1945.60;;;;;;5002055;28;20049;-64
2021/12/17 12:31:20;;;;;;;36.45;20.42;;;230.90;1945.60;;;;;;5002037;28;20077;-63
2021/12/17 12:34:01;;;;;;;32.40;17.70;;;230.90;1971.20;;;;;;5001963;28;20121;-62
2021/12/17 12:37:00;;;;;;;39.92;20.02;;;230.90;1945.60;;;;;;5001875;28;20030;-63
2021/12/17 12:39:38;;;;;;;48.28;27.55;;;230.90;1945.60;;;;;;5001279;28;20049;-62
2021/12/17 12:42:16;;;;;;;44.58;26.58;;;230.90;1971.20;;;;;;5001799;28;20036;-62
2021/12/17 12:44:45;;;;;;;100.75;50.72;;;230.90;1945.60;;;;;;5001593;28;20096;-63
2021/12/17 12:47:31;;;;;;;125.05;60.08;;;231.20;2124.80;;;;;;5001884;28;20022;-62
2021/12/17 12:50:10;;;;;;;95.05;47.75;;;256.30;2048.00;;;;;;5001644;28;20100;-62
2021/12/17 12:52:45;;;;;;;61.80;34.75;;;256.60;1971.20;;;;;;5001818;28;20052;-62
2021/12/17 12:55:17;;;;;;;50.20;30.02;;;256.90;1920.00;;;;;;5018677;28;20038;-65
2021/12/17 12:57:46;;;;;;;28.67;18.50;;;281.80;1868.80;;;;;;5083272;28;20024;-62
2021/12/17 13:00:26;;;;;;;30.95;18.23;;;256.90;1766.40;;;;;;5083675;28;20020;-65
2021/12/17 13:02:56;;;;;;;39.67;21.27;;;256.80;1792.00;;;;;;5083389;28;20103;-62
2021/12/17 13:05:23;;;;;;;44.17;25.77;;;256.70;1792.00;;;;;;5082325;28;20020;-66
2021/12/17 13:07:54;;;;;;;48.33;30.42;;;256.50;1817.60;;;;;;5081506;28;20025;-65
2021/12/17 13:10:25;;;;;;;61.17;34.72;;;256.50;1817.60;;;;;;5082394;28;20095;-62
2021/12/17 13:13:18;;;;;;;68.07;38.95;;;256.40;1817.60;;;;;;5083195;28;20016;-62
2021/12/17 13:24:07;;;;;;;111.70;55.17;;;256.20;1843.20;;;;;;5083338;28;20039;-63
2021/12/17 13:26:33;;;;;;;113.75;58.08;;;256.10;1843.20;;;;;;5083511;28;20024;-65
2021/12/17 13:29:01;;;;;;;125.30;62.03;;;256.00;1868.80;;;;;;5082359;28;20424;-65
2021/12/17 13:31:42;;;;;;;492.15;89.05;;;256.00;1843.20;;;;;;5084279;28;20051;-62
2021/12/17 13:34:19;;;;;;;156.93;69.80;;;256.00;1868.80;;;;;;5093957;28;20038;-64
2021/12/17 13:36:52;;;;;;;141.60;65.47;;;256.00;1868.80;;;;;;5093650;28;20031;-62
2021/12/17 13:39:19;;;;;;;129.43;65.43;;;256.00;1868.80;;;;;;5093480;28;20048;-64
2021/12/17 13:41:47;;;;;;;111.25;58.47;;;231.30;1868.80;;;;;;5093538;28;20069;-65
2021/12/17 13:44:34;;;;;;;112.00;51.45;;;231.30;1868.80;;;;;;5093035;28;20052;-68
2021/12/17 13:47:12;;;;;;;129.52;69.20;;;231.30;1868.80;;;;;;5089732;28;20028;-60
2021/12/17 13:49:40;;;;;;;131.35;66.82;;;231.30;1868.80;;;;;;5082825;28;20540;-58
2021/12/17 13:52:07;;;;;;;128.00;64.57;;;231.20;1868.80;;;;;;5086015;28;20020;-61
2021/12/17 13:54:33;;;;;;;110.68;55.80;;;231.20;1894.40;;;;;;5085776;28;20020;-62
2021/12/17 13:57:01;;;;;;;93.82;44.28;;;231.20;1894.40;;;;;;5096299;28;20127;-67
2021/12/17 13:59:34;;;;;;;92.05;45.03;;;231.10;1894.40;;;;;;5097023;28;20016;-67
2021/12/17 14:02:26;;;;;;;197.15;103.25;;;231.20;1894.40;;;;;;5096792;28;20028;-70
2021/12/17 14:05:06;;;;;;;118.45;54.63;;;231.10;1894.40;;;;;;5096321;28;20121;-66
2021/12/17 14:07:34;;;;;;;69.97;36.28;;;231.10;1920.00;;;;;;5096676;28;20023;-70
2021/12/17 14:10:17;;;;;;;52.88;30.60;;;231.10;1920.00;;;;;;5096759;28;20101;-62
2021/12/17 14:12:44;;;;;;;51.05;26.48;;;231.00;1894.40;;;;;;5093060;28;20078;-64
2021/12/17 14:15:13;;;;;;;51.20;25.00;;;230.90;1920.00;;;;;;5087066;28;20019;-65
2021/12/17 14:17:44;;;;;;;59.20;29.50;;;231.00;1920.00;;;;;;5086178;28;20028;-71
2021/12/17 14:20:16;;;;;;;69.88;34.67;;;231.00;1920.00;;;;;;5086830;28;20481;-61
2021/12/17 14:22:49;;;;;;;86.65;40.72;;;231.00;1920.00;;;;;;5087096;28;20032;-67
2021/12/17 14:25:40;;;;;;;73.30;38.47;;;231.00;1920.00;;;;;;5086815;28;20036;-71
2021/12/17 14:28:16;;;;;;;83.38;43.85;;;230.90;1920.00;;;;;;5087546;28;20021;-70
2021/12/17 14:30:53;;;;;;;81.85;46.78;;;230.90;1920.00;;;;;;5084604;28;20045;-67
2021/12/17 14:33:22;;;;;;;79.03;47.25;;;230.80;1920.00;;;;;;5086807;28;20024;-70
2021/12/17 14:35:58;;;;;;;63.63;38.65;;;230.80;1894.40;;;;;;5087995;28;20386;-70
2021/12/17 14:38:51;;;;;;;50.08;31.20;;;230.80;1894.40;;;;;;5086179;28;20016;-70
2021/12/17 14:41:24;;;;;;;44.85;26.23;;;230.80;1894.40;;;;;;5086489;28;20032;-61
2021/12/17 14:43:57;;;;;;;41.25;23.60;;;230.70;1920.00;;;;;;5083739;28;20051;-70
2021/12/17 14:46:26;;;;;;;41.03;22.65;;;230.70;1920.00;;;;;;5072913;28;20386;-71
2021/12/17 15:02:44;;;;;;;;;;;230.50;1920.00;;;;;;5032503;28;20463;-62
2021/12/17 15:05:10;;;;;;;40.20;20.17;;;230.40;1894.40;;;;;;5032581;28;20298;-71
2021/12/17 15:07:36;;;;;;;48.17;25.33;;;230.40;1894.40;;;;;;5031653;28;20025;-71
2021/12/17 15:10:03;;;;;;;62.33;32.17;;;205.70;1920.00;;;;;;5031632;28;20609;-69
2021/12/17 15:15:13;;;;;;;96.40;52.78;;;205.60;1894.40;;;;;;5031585;28;20135;-62
2021/12/17 15:17:39;;;;;;;86.63;47.83;;;205.60;1894.40;;;;;;5033030;28;20533;-68
2021/12/17 15:20:07;;;;;;;92.20;54.22;;;205.60;1920.00;;;;;;5033330;28;20056;-75
2021/12/17 15:22:33;;;;;;;83.45;47.78;;;205.60;1894.40;;;;;;5033183;28;20025;-61
2021/12/17 15:24:58;;;;;;;69.22;41.10;;;205.50;1920.00;;;;;;5033191;28;20483;-78
2021/12/17 15:27:24;;;;;;;95.28;54.63;;;205.50;1920.00;;;;;;5032351;28;20463;-62
2021/12/17 15:29:50;;;;;;;71.13;38.22;;;205.50;1920.00;;;;;;5033277;28;20025;-63
2021/12/17 15:32:16;;;;;;;261.35;138.07;;;205.50;2022.40;;;;;;5033008;28;20029;-65
2021/12/17 15:34:42;;;;;;;235.18;124.53;;;230.40;2073.60;;;;;;5060035;28;20052;-63
2021/12/17 15:37:07;;;;;;;169.95;90.07;;;230.70;2073.60;;;;;;5075068;28;20099;-61
2021/12/17 15:39:33;;;;;;;191.93;109.95;;;230.90;2048.00;;;;;;5074801;28;20028;-60
2021/12/17 15:41:59;;;;;;;173.02;117.45;;;231.00;1868.80;;;;;;5074814;28;20490;-62
2021/12/17 15:44:24;;;;;;;100.82;72.05;;;230.80;1817.60;;;;;;5074408;28;20140;-69
2021/12/17 15:46:51;;;;;;;84.55;63.70;;;230.70;1817.60;;;;;;5074900;28;20025;-69
2021/12/17 15:49:17;;;;;;;262.77;148.15;;;230.60;1843.20;;;;;;5074676;28;20479;-60
2021/12/17 15:51:43;;;;;;;277.30;166.55;;;230.50;1843.20;;;;;;5074418;28;20367;-72